Terminal Aerodrome Forecast
Issued by NWS Tallahassee, FL

Home | Current Version | Previous Version | Text Only | Print | Product List | Glossary On
Versions: 1 2 3 4 5 6 7 8 9 10 11 12 13 14 15 16 17 18 19 20 21 22 23 24 25
000
FTUS42 KTAE 301100
TAFTLH
TAF
KTLH 301120Z 3012/3112 01005KT P6SM SCT025 SCT100
      TEMPO 3012/3014 BKN025
     FM301400 36007KT P6SM SCT250
     FM310200 31003KT P6SM SKC=

USA.gov is the U.S. government's official web portal to all federal, state and local government web resources and services.